PWSweather.com
Personal Weather Stations
Station Observations
KVAGLENALL
West Henrico, Glen Allen, VA 23060-6503

West HenricoGlen Allen, VA 23060-6503

Lat: 37.6554, Lon: -77.5693

Elevation: 273

Station Type: Davis Vantage Pro II

www.glenallenweather.com

High Low Average
Temperature 95.6°F35.3°C 74.4°F23.6°C 83.7°F28.7°C
Dew Point 79.1°F26.2°C 70.8°F21.6°C 74.2°F23.4°C
Winds 16.0 mph 25.7 kmh 1.0 mph 1.6 kmh 6.0 mph SW9.7 kmh SW
Wind Gusts 22.2 mph35.7 kmh 2.0 mph3.2 kmh 9.0 mph14.5 kmh
Humidity 92% 53% 74%
Pressure 29.91 in1012.9 mb 29.81 in1009.5 mb -
Precipitation 0.00 in0.0 mm - -
Hour Temp Dew Point Humidity Winds Wind Gusts Pressure Precip Precip Rate Daily Precip Total
12:30 AM 77.1°F25.1°C 72.2°F22.3°C 85% Calm Calm 2.0 mph3.2 kmh 29.91 in1012.9 mb 0.00 in0.0 mm 0.00 in0.0 mm 0.00 in0.0 mm
01:30 AM 76.6°F24.8°C 72.4°F22.4°C 87% 1.0 mph SW1.6 kmh SW 5.1 mph8.2 kmh 29.91 in1012.9 mb 0.00 in0.0 mm 0.00 in0.0 mm 0.00 in0.0 mm
02:30 AM 75.7°F24.3°C 72.2°F22.3°C 89% 1.0 mph S1.6 kmh S 2.0 mph3.2 kmh 29.91 in1012.9 mb 0.00 in0.0 mm 0.00 in0.0 mm 0.00 in0.0 mm
03:30 AM 75.3°F24.1°C 72.1°F22.3°C 90% 3.0 mph S4.8 kmh S 3.0 mph4.8 kmh 29.90 in1012.5 mb 0.00 in0.0 mm 0.00 in0.0 mm 0.00 in0.0 mm
04:30 AM 74.8°F23.8°C 72.0°F22.2°C 91% 2.0 mph SSW3.2 kmh SSW 3.0 mph4.8 kmh 29.89 in1012.2 mb 0.00 in0.0 mm 0.00 in0.0 mm 0.00 in0.0 mm
05:30 AM 74.4°F23.6°C 71.9°F22.2°C 92% 2.0 mph SSW3.2 kmh SSW 2.0 mph3.2 kmh 29.88 in1011.9 mb 0.00 in0.0 mm 0.00 in0.0 mm 0.00 in0.0 mm
06:30 AM 75.0°F23.9°C 72.2°F22.3°C 91% 5.0 mph SW8.0 kmh SW 6.1 mph9.8 kmh 29.88 in1011.9 mb 0.00 in0.0 mm 0.00 in0.0 mm 0.00 in0.0 mm
07:30 AM 77.2°F25.1°C 73.7°F23.2°C 89% 5.0 mph S8.0 kmh S 7.1 mph11.4 kmh 29.88 in1011.9 mb 0.00 in0.0 mm 0.00 in0.0 mm 0.00 in0.0 mm
08:30 AM 80.7°F27.1°C 75.1°F23.9°C 83% 6.0 mph SSW9.7 kmh SSW 15.1 mph24.3 kmh 29.88 in1011.9 mb 0.00 in0.0 mm 0.00 in0.0 mm 0.00 in0.0 mm
09:30 AM 86.7°F30.4°C 77.5°F25.3°C 74% 8.0 mph SSW12.9 kmh SSW 9.1 mph14.6 kmh 29.88 in1011.9 mb 0.00 in0.0 mm 0.00 in0.0 mm 0.00 in0.0 mm
10:30 AM 89.4°F31.9°C 78.8°F26.0°C 71% 3.0 mph S4.8 kmh S 9.1 mph14.6 kmh 29.88 in1011.9 mb 0.00 in0.0 mm 0.00 in0.0 mm 0.00 in0.0 mm
11:30 AM 92.1°F33.4°C 79.1°F26.2°C 66% 5.0 mph S8.0 kmh S 7.1 mph11.4 kmh 29.87 in1011.5 mb 0.00 in0.0 mm 0.00 in0.0 mm 0.00 in0.0 mm
12:30 PM 94.0°F34.4°C 78.0°F25.6°C 60% 7.0 mph SW11.3 kmh SW 13.1 mph21.1 kmh 29.85 in1010.8 mb 0.00 in0.0 mm 0.00 in0.0 mm 0.00 in0.0 mm
01:30 PM 95.6°F35.3°C 75.7°F24.3°C 53% 16.0 mph SW25.7 kmh SW 22.2 mph35.7 kmh 29.84 in1010.5 mb 0.00 in0.0 mm 0.00 in0.0 mm 0.00 in0.0 mm
02:30 PM 94.4°F34.7°C 76.8°F24.9°C 57% 8.0 mph SW12.9 kmh SW 13.1 mph21.1 kmh 29.82 in1009.8 mb 0.00 in0.0 mm 0.00 in0.0 mm 0.00 in0.0 mm
03:30 PM 93.3°F34.1°C 74.2°F23.4°C 54% 13.0 mph WSW20.9 kmh WSW 14.1 mph22.7 kmh 29.81 in1009.5 mb 0.00 in0.0 mm 0.00 in0.0 mm 0.00 in0.0 mm
04:30 PM 91.9°F33.3°C 75.0°F23.9°C 58% 8.0 mph WSW12.9 kmh WSW 12.1 mph19.5 kmh 29.81 in1009.5 mb 0.00 in0.0 mm 0.00 in0.0 mm 0.00 in0.0 mm
05:30 PM 91.2°F32.9°C 75.3°F24.1°C 60% 7.0 mph SW11.3 kmh SW 16.2 mph26.1 kmh 29.81 in1009.5 mb 0.00 in0.0 mm 0.00 in0.0 mm 0.00 in0.0 mm
06:30 PM 89.0°F31.7°C 75.8°F24.3°C 65% 5.0 mph SW8.0 kmh SW 9.1 mph14.6 kmh 29.81 in1009.5 mb 0.00 in0.0 mm 0.00 in0.0 mm 0.00 in0.0 mm
07:30 PM 88.0°F31.1°C 76.6°F24.8°C 69% 5.0 mph WSW8.0 kmh WSW 7.1 mph11.4 kmh 29.82 in1009.8 mb 0.00 in0.0 mm 0.00 in0.0 mm 0.00 in0.0 mm
08:30 PM 81.0°F27.2°C 71.5°F21.9°C 73% 2.0 mph NW3.2 kmh NW 9.1 mph14.6 kmh 29.83 in1010.2 mb 0.00 in0.0 mm 0.00 in0.0 mm 0.00 in0.0 mm
09:30 PM 78.6°F25.9°C 70.8°F21.6°C 77% 2.0 mph SW3.2 kmh SW 6.1 mph9.8 kmh 29.83 in1010.2 mb 0.00 in0.0 mm 0.00 in0.0 mm 0.00 in0.0 mm
10:30 PM 78.9°F26.1°C 71.5°F21.9°C 78% 3.0 mph S4.8 kmh S 6.1 mph9.8 kmh 29.82 in1009.8 mb 0.00 in0.0 mm 0.00 in0.0 mm 0.00 in0.0 mm
11:30 PM 78.9°F26.1°C 71.5°F21.9°C 78% 9.0 mph SSW14.5 kmh SSW 11.1 mph17.9 kmh 29.84 in1010.5 mb 0.00 in0.0 mm 0.00 in0.0 mm 0.00 in0.0 mm